sensor_id;sensor_type;location;lat;lon;timestamp;pressure;altitude;pressure_sealevel;temperature;humidity
19236;BME280;9752;54.270;12.470;2023-02-03T00:01:39;102038.75;;;1.29;100.00
19236;BME280;9752;54.270;12.470;2023-02-03T00:06:41;102032.38;;;1.25;100.00
19236;BME280;9752;54.270;12.470;2023-02-03T00:11:43;101980.72;;;1.21;100.00
19236;BME280;9752;54.270;12.470;2023-02-03T00:16:46;101988.94;;;1.18;100.00
19236;BME280;9752;54.270;12.470;2023-02-03T00:21:47;101998.78;;;1.22;100.00
19236;BME280;9752;54.270;12.470;2023-02-03T00:26:49;101991.31;;;1.24;100.00
19236;BME280;9752;54.270;12.470;2023-02-03T00:31:52;101986.53;;;1.27;100.00
19236;BME280;9752;54.270;12.470;2023-02-03T00:36:55;101962.84;;;1.21;100.00
19236;BME280;9752;54.270;12.470;2023-02-03T00:41:56;101947.13;;;1.17;100.00
19236;BME280;9752;54.270;12.470;2023-02-03T00:47:00;101927.63;;;1.18;100.00
19236;BME280;9752;54.270;12.470;2023-02-03T00:52:03;101918.66;;;1.22;100.00
19236;BME280;9752;54.270;12.470;2023-02-03T00:57:05;101905.69;;;1.27;100.00
19236;BME280;9752;54.270;12.470;2023-02-03T01:02:08;101908.75;;;1.32;100.00
19236;BME280;9752;54.270;12.470;2023-02-03T01:07:10;101897.41;;;1.37;100.00
19236;BME280;9752;54.270;12.470;2023-02-03T01:12:11;101891.22;;;1.35;100.00
19236;BME280;9752;54.270;12.470;2023-02-03T01:17:15;101904.91;;;1.35;100.00
19236;BME280;9752;54.270;12.470;2023-02-03T01:22:17;101906.56;;;1.35;100.00
19236;BME280;9752;54.270;12.470;2023-02-03T01:27:19;101888.69;;;1.28;100.00
19236;BME280;9752;54.270;12.470;2023-02-03T01:32:22;101878.09;;;1.25;100.00
19236;BME280;9752;54.270;12.470;2023-02-03T01:37:24;101859.91;;;1.14;100.00
19236;BME280;9752;54.270;12.470;2023-02-03T01:42:31;101840.22;;;1.06;100.00
19236;BME280;9752;54.270;12.470;2023-02-03T01:47:37;101824.03;;;0.98;100.00
19236;BME280;9752;54.270;12.470;2023-02-03T01:52:41;101808.91;;;0.93;100.00
19236;BME280;9752;54.270;12.470;2023-02-03T01:57:46;101788.53;;;0.86;100.00
19236;BME280;9752;54.270;12.470;2023-02-03T02:02:51;101762.63;;;0.83;100.00
19236;BME280;9752;54.270;12.470;2023-02-03T02:07:55;101777.16;;;0.91;100.00
19236;BME280;9752;54.270;12.470;2023-02-03T02:12:59;101762.19;;;0.94;100.00
19236;BME280;9752;54.270;12.470;2023-02-03T02:18:18;101739.91;;;1.00;100.00
19236;BME280;9752;54.270;12.470;2023-02-03T02:23:35;101733.00;;;0.99;100.00
19236;BME280;9752;54.270;12.470;2023-02-03T02:29:02;101711.78;;;1.00;100.00
19236;BME280;9752;54.270;12.470;2023-02-03T02:34:21;101701.94;;;1.03;100.00
19236;BME280;9752;54.270;12.470;2023-02-03T02:39:36;101686.44;;;1.02;100.00
19236;BME280;9752;54.270;12.470;2023-02-03T02:44:43;101669.31;;;1.01;100.00
19236;BME280;9752;54.270;12.470;2023-02-03T02:49:52;101663.63;;;1.03;100.00
19236;BME280;9752;54.270;12.470;2023-02-03T02:54:58;101657.38;;;1.08;100.00
19236;BME280;9752;54.270;12.470;2023-02-03T03:00:03;101640.50;;;1.17;100.00
19236;BME280;9752;54.270;12.470;2023-02-03T03:05:08;101631.47;;;1.28;100.00
19236;BME280;9752;54.270;12.470;2023-02-03T03:10:20;101633.91;;;1.43;100.00
19236;BME280;9752;54.270;12.470;2023-02-03T03:15:26;101619.34;;;1.58;100.00
19236;BME280;9752;54.270;12.470;2023-02-03T03:20:32;101608.94;;;1.72;100.00
19236;BME280;9752;54.270;12.470;2023-02-03T03:25:39;101592.47;;;1.77;100.00
19236;BME280;9752;54.270;12.470;2023-02-03T03:30:42;101603.25;;;1.90;100.00
19236;BME280;9752;54.270;12.470;2023-02-03T03:35:49;101591.50;;;2.08;100.00
19236;BME280;9752;54.270;12.470;2023-02-03T03:40:59;101582.50;;;2.12;100.00
19236;BME280;9752;54.270;12.470;2023-02-03T03:46:06;101576.41;;;2.19;100.00
19236;BME280;9752;54.270;12.470;2023-02-03T03:51:15;101555.69;;;2.24;100.00
19236;BME280;9752;54.270;12.470;2023-02-03T03:56:23;101534.94;;;2.30;100.00
19236;BME280;9752;54.270;12.470;2023-02-03T04:01:28;101545.38;;;2.40;100.00
19236;BME280;9752;54.270;12.470;2023-02-03T04:06:32;101537.16;;;2.51;100.00
19236;BME280;9752;54.270;12.470;2023-02-03T04:11:33;101540.41;;;2.66;100.00
19236;BME280;9752;54.270;12.470;2023-02-03T04:16:53;101524.50;;;2.86;100.00
19236;BME280;9752;54.270;12.470;2023-02-03T04:21:56;101525.06;;;3.08;100.00
19236;BME280;9752;54.270;12.470;2023-02-03T04:26:57;101526.47;;;3.31;100.00
19236;BME280;9752;54.270;12.470;2023-02-03T04:31:59;101522.56;;;3.43;100.00
19236;BME280;9752;54.270;12.470;2023-02-03T04:37:02;101501.47;;;3.55;100.00
19236;BME280;9752;54.270;12.470;2023-02-03T04:42:04;101481.88;;;3.72;100.00
19236;BME280;9752;54.270;12.470;2023-02-03T04:47:05;101473.41;;;3.82;100.00
19236;BME280;9752;54.270;12.470;2023-02-03T04:52:09;101465.09;;;3.94;100.00
19236;BME280;9752;54.270;12.470;2023-02-03T04:57:11;101466.88;;;4.12;100.00
19236;BME280;9752;54.270;12.470;2023-02-03T05:02:13;101460.66;;;4.27;100.00
19236;BME280;9752;54.270;12.470;2023-02-03T05:07:16;101460.28;;;4.50;100.00
19236;BME280;9752;54.270;12.470;2023-02-03T05:12:17;101444.19;;;4.71;100.00
19236;BME280;9752;54.270;12.470;2023-02-03T05:17:19;101436.09;;;4.85;100.00
19236;BME280;9752;54.270;12.470;2023-02-03T05:22:22;101451.94;;;5.36;100.00
19236;BME280;9752;54.270;12.470;2023-02-03T05:27:23;101450.84;;;5.62;100.00
19236;BME280;9752;54.270;12.470;2023-02-03T05:32:25;101452.81;;;5.75;100.00
19236;BME280;9752;54.270;12.470;2023-02-03T05:37:28;101453.75;;;5.75;100.00
19236;BME280;9752;54.270;12.470;2023-02-03T05:42:30;101433.31;;;5.77;100.00
19236;BME280;9752;54.270;12.470;2023-02-03T05:47:31;101423.81;;;5.86;100.00
19236;BME280;9752;54.270;12.470;2023-02-03T05:52:34;101432.81;;;5.81;100.00
19236;BME280;9752;54.270;12.470;2023-02-03T05:57:36;101415.81;;;5.83;100.00
19236;BME280;9752;54.270;12.470;2023-02-03T06:02:38;101395.63;;;5.87;100.00
19236;BME280;9752;54.270;12.470;2023-02-03T06:07:41;101384.28;;;5.85;100.00
19236;BME280;9752;54.270;12.470;2023-02-03T06:12:43;101360.50;;;5.88;100.00
19236;BME280;9752;54.270;12.470;2023-02-03T06:17:45;101367.59;;;5.91;100.00
19236;BME280;9752;54.270;12.470;2023-02-03T06:22:49;101365.75;;;5.90;100.00
19236;BME280;9752;54.270;12.470;2023-02-03T06:27:50;101370.16;;;5.91;100.00
19236;BME280;9752;54.270;12.470;2023-02-03T06:32:53;101373.63;;;5.91;100.00
19236;BME280;9752;54.270;12.470;2023-02-03T06:37:56;101368.09;;;5.86;100.00
19236;BME280;9752;54.270;12.470;2023-02-03T06:42:58;101352.66;;;5.86;100.00
19236;BME280;9752;54.270;12.470;2023-02-03T06:47:59;101345.66;;;5.85;100.00
19236;BME280;9752;54.270;12.470;2023-02-03T06:53:02;101355.84;;;5.84;100.00
19236;BME280;9752;54.270;12.470;2023-02-03T06:58:04;101347.63;;;5.88;100.00
19236;BME280;9752;54.270;12.470;2023-02-03T07:03:06;101341.06;;;5.92;100.00
19236;BME280;9752;54.270;12.470;2023-02-03T07:08:09;101333.97;;;5.89;100.00
19236;BME280;9752;54.270;12.470;2023-02-03T07:13:10;101352.13;;;5.91;100.00
19236;BME280;9752;54.270;12.470;2023-02-03T07:18:12;101317.13;;;5.93;100.00
19236;BME280;9752;54.270;12.470;2023-02-03T07:23:16;101306.81;;;5.93;100.00
19236;BME280;9752;54.270;12.470;2023-02-03T07:28:18;101328.25;;;6.02;100.00
19236;BME280;9752;54.270;12.470;2023-02-03T07:33:19;101318.34;;;6.06;100.00
19236;BME280;9752;54.270;12.470;2023-02-03T07:38:23;101308.97;;;6.07;100.00
19236;BME280;9752;54.270;12.470;2023-02-03T07:43:25;101315.91;;;6.08;100.00
19236;BME280;9752;54.270;12.470;2023-02-03T07:48:27;101323.50;;;6.06;100.00
19236;BME280;9752;54.270;12.470;2023-02-03T07:53:30;101310.25;;;6.12;100.00
19236;BME280;9752;54.270;12.470;2023-02-03T07:58:32;101303.31;;;6.11;100.00
19236;BME280;9752;54.270;12.470;2023-02-03T08:03:34;101313.84;;;6.14;100.00
19236;BME280;9752;54.270;12.470;2023-02-03T08:08:37;101329.06;;;6.11;100.00
19236;BME280;9752;54.270;12.470;2023-02-03T08:13:39;101318.25;;;6.15;100.00
19236;BME280;9752;54.270;12.470;2023-02-03T08:18:40;101312.81;;;6.12;100.00
19236;BME280;9752;54.270;12.470;2023-02-03T08:23:43;101314.38;;;6.10;100.00
19236;BME280;9752;54.270;12.470;2023-02-03T08:28:47;101313.97;;;6.05;100.00
19236;BME280;9752;54.270;12.470;2023-02-03T08:33:49;101322.28;;;5.93;100.00
19236;BME280;9752;54.270;12.470;2023-02-03T08:38:52;101318.16;;;5.95;100.00
19236;BME280;9752;54.270;12.470;2023-02-03T08:43:53;101360.06;;;5.73;100.00
19236;BME280;9752;54.270;12.470;2023-02-03T08:48:55;101360.00;;;5.63;100.00
19236;BME280;9752;54.270;12.470;2023-02-03T08:53:58;101339.16;;;5.60;100.00
19236;BME280;9752;54.270;12.470;2023-02-03T08:59:00;101348.28;;;5.66;100.00
19236;BME280;9752;54.270;12.470;2023-02-03T09:04:02;101373.97;;;5.75;100.00
19236;BME280;9752;54.270;12.470;2023-02-03T09:09:07;101311.81;;;5.81;100.00
19236;BME280;9752;54.270;12.470;2023-02-03T09:14:09;101289.19;;;5.87;100.00
19236;BME280;9752;54.270;12.470;2023-02-03T09:19:11;101263.66;;;5.80;100.00
19236;BME280;9752;54.270;12.470;2023-02-03T09:24:15;101261.81;;;5.98;100.00
19236;BME280;9752;54.270;12.470;2023-02-03T09:29:16;101261.56;;;6.05;100.00
19236;BME280;9752;54.270;12.470;2023-02-03T09:34:19;101240.47;;;6.09;100.00
19236;BME280;9752;54.270;12.470;2023-02-03T09:39:22;101291.31;;;6.12;100.00
19236;BME280;9752;54.270;12.470;2023-02-03T09:44:31;101261.59;;;6.15;100.00
19236;BME280;9752;54.270;12.470;2023-02-03T09:49:38;101232.63;;;6.28;100.00
19236;BME280;9752;54.270;12.470;2023-02-03T09:54:47;101230.16;;;6.40;100.00
19236;BME280;9752;54.270;12.470;2023-02-03T09:59:52;101244.84;;;6.61;100.00
19236;BME280;9752;54.270;12.470;2023-02-03T10:04:58;101198.09;;;6.36;100.00
19236;BME280;9752;54.270;12.470;2023-02-03T10:10:10;101178.41;;;6.27;100.00
19236;BME280;9752;54.270;12.470;2023-02-03T10:15:41;101153.41;;;6.15;100.00
19236;BME280;9752;54.270;12.470;2023-02-03T10:20:46;101128.19;;;6.11;100.00
19236;BME280;9752;54.270;12.470;2023-02-03T10:25:51;101111.81;;;6.21;100.00
19236;BME280;9752;54.270;12.470;2023-02-03T10:30:56;101089.41;;;6.20;100.00
19236;BME280;9752;54.270;12.470;2023-02-03T10:36:03;101093.88;;;6.33;100.00
19236;BME280;9752;54.270;12.470;2023-02-03T10:41:09;101049.81;;;6.30;100.00
19236;BME280;9752;54.270;12.470;2023-02-03T10:46:10;101021.69;;;6.43;100.00
19236;BME280;9752;54.270;12.470;2023-02-03T10:51:19;101059.00;;;6.26;100.00
19236;BME280;9752;54.270;12.470;2023-02-03T10:56:24;100991.44;;;6.08;100.00
19236;BME280;9752;54.270;12.470;2023-02-03T11:01:36;100985.75;;;6.12;100.00
19236;BME280;9752;54.270;12.470;2023-02-03T11:06:53;100965.13;;;6.22;100.00
19236;BME280;9752;54.270;12.470;2023-02-03T11:12:09;100942.38;;;6.39;100.00
19236;BME280;9752;54.270;12.470;2023-02-03T11:17:17;100942.97;;;6.24;100.00
19236;BME280;9752;54.270;12.470;2023-02-03T11:22:27;100935.81;;;6.10;100.00
19236;BME280;9752;54.270;12.470;2023-02-03T11:27:32;100925.38;;;6.09;100.00
19236;BME280;9752;54.270;12.470;2023-02-03T11:32:35;100915.28;;;6.22;100.00
19236;BME280;9752;54.270;12.470;2023-02-03T11:37:39;100908.34;;;6.21;100.00
19236;BME280;9752;54.270;12.470;2023-02-03T11:42:44;100900.19;;;6.49;100.00
19236;BME280;9752;54.270;12.470;2023-02-03T11:47:47;100879.41;;;6.57;100.00
19236;BME280;9752;54.270;12.470;2023-02-03T11:53:01;100880.88;;;6.65;100.00
19236;BME280;9752;54.270;12.470;2023-02-03T12:09:23;100874.63;;;6.40;100.00
19236;BME280;9752;54.270;12.470;2023-02-03T12:14:42;100861.31;;;6.45;100.00
19236;BME280;9752;54.270;12.470;2023-02-03T12:19:59;100855.91;;;6.42;100.00
19236;BME280;9752;54.270;12.470;2023-02-03T12:25:14;100862.16;;;6.34;100.00
19236;BME280;9752;54.270;12.470;2023-02-03T12:30:24;100868.44;;;6.38;100.00
19236;BME280;9752;54.270;12.470;2023-02-03T12:35:32;100831.53;;;6.49;100.00
19236;BME280;9752;54.270;12.470;2023-02-03T12:40:38;100849.19;;;6.44;100.00
19236;BME280;9752;54.270;12.470;2023-02-03T12:45:50;100856.50;;;6.50;100.00
19236;BME280;9752;54.270;12.470;2023-02-03T12:50:57;100897.59;;;6.49;100.00
19236;BME280;9752;54.270;12.470;2023-02-03T12:56:04;100859.63;;;6.46;100.00
19236;BME280;9752;54.270;12.470;2023-02-03T13:01:17;100861.00;;;6.31;100.00
19236;BME280;9752;54.270;12.470;2023-02-03T13:06:23;100881.72;;;6.10;100.00
19236;BME280;9752;54.270;12.470;2023-02-03T13:11:30;100874.19;;;6.01;100.00
19236;BME280;9752;54.270;12.470;2023-02-03T13:16:38;100886.53;;;5.95;100.00
19236;BME280;9752;54.270;12.470;2023-02-03T13:21:41;100901.84;;;5.94;100.00
19236;BME280;9752;54.270;12.470;2023-02-03T13:27:08;100920.66;;;5.93;100.00
19236;BME280;9752;54.270;12.470;2023-02-03T13:32:28;100926.19;;;5.87;100.00
19236;BME280;9752;54.270;12.470;2023-02-03T13:37:54;100934.69;;;5.86;100.00
19236;BME280;9752;54.270;12.470;2023-02-03T13:43:03;100938.41;;;5.90;100.00
19236;BME280;9752;54.270;12.470;2023-02-03T13:48:13;100946.31;;;5.81;100.00
19236;BME280;9752;54.270;12.470;2023-02-03T13:53:18;100949.00;;;5.72;100.00
19236;BME280;9752;54.270;12.470;2023-02-03T13:58:22;100920.97;;;5.65;100.00
19236;BME280;9752;54.270;12.470;2023-02-03T14:03:43;100982.63;;;5.53;100.00
19236;BME280;9752;54.270;12.470;2023-02-03T14:08:48;100975.94;;;5.45;100.00
19236;BME280;9752;54.270;12.470;2023-02-03T14:13:51;101004.88;;;5.32;100.00
19236;BME280;9752;54.270;12.470;2023-02-03T14:18:54;101013.63;;;5.24;100.00
19236;BME280;9752;54.270;12.470;2023-02-03T14:24:01;101017.59;;;5.31;100.00
19236;BME280;9752;54.270;12.470;2023-02-03T14:29:04;101051.81;;;5.30;100.00
19236;BME280;9752;54.270;12.470;2023-02-03T14:34:09;101063.16;;;5.32;100.00
19236;BME280;9752;54.270;12.470;2023-02-03T14:45:04;101186.38;;;5.09;100.00
19236;BME280;9752;54.270;12.470;2023-02-03T14:50:32;101221.47;;;5.09;100.00
19236;BME280;9752;54.270;12.470;2023-02-03T14:55:45;101259.63;;;5.04;100.00
19236;BME280;9752;54.270;12.470;2023-02-03T15:00:48;101230.88;;;5.08;100.00
19236;BME280;9752;54.270;12.470;2023-02-03T15:05:55;101236.13;;;5.10;100.00
19236;BME280;9752;54.270;12.470;2023-02-03T15:10:58;101236.94;;;5.19;100.00
19236;BME280;9752;54.270;12.470;2023-02-03T15:16:02;101228.13;;;5.26;100.00
19236;BME280;9752;54.270;12.470;2023-02-03T15:21:14;101227.84;;;5.23;100.00
19236;BME280;9752;54.270;12.470;2023-02-03T15:26:18;101234.78;;;5.24;100.00
19236;BME280;9752;54.270;12.470;2023-02-03T15:31:28;101240.47;;;5.30;100.00
19236;BME280;9752;54.270;12.470;2023-02-03T15:36:38;101248.94;;;5.29;100.00
19236;BME280;9752;54.270;12.470;2023-02-03T15:41:43;101225.25;;;5.23;100.00
19236;BME280;9752;54.270;12.470;2023-02-03T15:46:48;101230.38;;;5.13;100.00
19236;BME280;9752;54.270;12.470;2023-02-03T15:51:55;101251.84;;;5.13;100.00
19236;BME280;9752;54.270;12.470;2023-02-03T15:56:59;101274.47;;;5.17;100.00
19236;BME280;9752;54.270;12.470;2023-02-03T16:02:14;101287.47;;;5.19;100.00
19236;BME280;9752;54.270;12.470;2023-02-03T16:07:22;101303.91;;;5.11;100.00
19236;BME280;9752;54.270;12.470;2023-02-03T16:12:26;101311.28;;;4.97;100.00
19236;BME280;9752;54.270;12.470;2023-02-03T16:17:30;101328.78;;;5.01;100.00
19236;BME280;9752;54.270;12.470;2023-02-03T16:22:37;101348.34;;;5.09;100.00
19236;BME280;9752;54.270;12.470;2023-02-03T16:27:39;101364.63;;;5.19;100.00
19236;BME280;9752;54.270;12.470;2023-02-03T16:32:58;101359.44;;;5.27;100.00
19236;BME280;9752;54.270;12.470;2023-02-03T16:38:20;101371.34;;;5.27;100.00
19236;BME280;9752;54.270;12.470;2023-02-03T16:43:39;101367.13;;;5.08;100.00
19236;BME280;9752;54.270;12.470;2023-02-03T16:48:59;101392.25;;;5.02;100.00
19236;BME280;9752;54.270;12.470;2023-02-03T16:54:19;101436.38;;;4.88;100.00
19236;BME280;9752;54.270;12.470;2023-02-03T16:59:21;101503.72;;;4.66;100.00
19236;BME280;9752;54.270;12.470;2023-02-03T17:04:22;101567.69;;;4.63;100.00
19236;BME280;9752;54.270;12.470;2023-02-03T17:09:25;101604.91;;;4.41;100.00
19236;BME280;9752;54.270;12.470;2023-02-03T17:14:28;101640.09;;;4.24;100.00
19236;BME280;9752;54.270;12.470;2023-02-03T17:19:30;101659.09;;;4.00;100.00
19236;BME280;9752;54.270;12.470;2023-02-03T17:24:34;101672.34;;;3.70;100.00
19236;BME280;9752;54.270;12.470;2023-02-03T17:29:35;101680.59;;;3.59;100.00
19236;BME280;9752;54.270;12.470;2023-02-03T17:34:37;101711.00;;;3.47;100.00
19236;BME280;9752;54.270;12.470;2023-02-03T17:39:40;101718.34;;;3.35;100.00
19236;BME280;9752;54.270;12.470;2023-02-03T17:44:42;101730.81;;;3.23;100.00
19236;BME280;9752;54.270;12.470;2023-02-03T17:49:44;101764.56;;;3.19;100.00
19236;BME280;9752;54.270;12.470;2023-02-03T17:54:47;101766.84;;;3.00;100.00
19236;BME280;9752;54.270;12.470;2023-02-03T17:59:49;101754.47;;;2.80;100.00
19236;BME280;9752;54.270;12.470;2023-02-03T18:04:54;101755.91;;;2.69;100.00
19236;BME280;9752;54.270;12.470;2023-02-03T18:09:57;101745.25;;;2.73;100.00
19236;BME280;9752;54.270;12.470;2023-02-03T18:14:59;101745.97;;;2.72;100.00
19236;BME280;9752;54.270;12.470;2023-02-03T18:20:00;101757.63;;;2.62;100.00
19236;BME280;9752;54.270;12.470;2023-02-03T18:25:05;101703.03;;;2.54;100.00
19236;BME280;9752;54.270;12.470;2023-02-03T18:30:09;101775.31;;;2.67;100.00
19236;BME280;9752;54.270;12.470;2023-02-03T18:35:11;101764.25;;;2.76;100.00
19236;BME280;9752;54.270;12.470;2023-02-03T18:40:17;101783.41;;;2.79;100.00
19236;BME280;9752;54.270;12.470;2023-02-03T18:45:19;101788.38;;;2.78;100.00
19236;BME280;9752;54.270;12.470;2023-02-03T18:50:21;101809.28;;;2.73;100.00
19236;BME280;9752;54.270;12.470;2023-02-03T18:55:24;101813.56;;;2.50;100.00
19236;BME280;9752;54.270;12.470;2023-02-03T19:00:25;101832.28;;;2.26;100.00
19236;BME280;9752;54.270;12.470;2023-02-03T19:05:27;101859.19;;;2.22;100.00
19236;BME280;9752;54.270;12.470;2023-02-03T19:10:30;101897.25;;;2.19;100.00
19236;BME280;9752;54.270;12.470;2023-02-03T19:15:32;101922.63;;;2.25;100.00
19236;BME280;9752;54.270;12.470;2023-02-03T19:20:34;101972.06;;;2.40;100.00
19236;BME280;9752;54.270;12.470;2023-02-03T19:25:37;101992.72;;;2.41;100.00
19236;BME280;9752;54.270;12.470;2023-02-03T19:30:39;102047.78;;;2.38;100.00
19236;BME280;9752;54.270;12.470;2023-02-03T19:35:41;102056.56;;;2.40;100.00
19236;BME280;9752;54.270;12.470;2023-02-03T19:40:45;102095.16;;;2.41;100.00
19236;BME280;9752;54.270;12.470;2023-02-03T19:45:46;102112.31;;;2.42;100.00
19236;BME280;9752;54.270;12.470;2023-02-03T19:50:48;102125.69;;;2.40;100.00
19236;BME280;9752;54.270;12.470;2023-02-03T19:55:51;102169.41;;;2.41;100.00
19236;BME280;9752;54.270;12.470;2023-02-03T20:00:53;102182.03;;;2.40;100.00
19236;BME280;9752;54.270;12.470;2023-02-03T20:05:54;102193.72;;;2.45;100.00
19236;BME280;9752;54.270;12.470;2023-02-03T20:10:57;102221.13;;;2.46;100.00
19236;BME280;9752;54.270;12.470;2023-02-03T20:15:59;102224.06;;;2.49;100.00
19236;BME280;9752;54.270;12.470;2023-02-03T20:21:01;102258.97;;;2.48;100.00
19236;BME280;9752;54.270;12.470;2023-02-03T20:26:05;102261.75;;;2.43;100.00
19236;BME280;9752;54.270;12.470;2023-02-03T20:31:07;102281.69;;;2.38;100.00
19236;BME280;9752;54.270;12.470;2023-02-03T20:36:09;102281.34;;;2.35;100.00
19236;BME280;9752;54.270;12.470;2023-02-03T20:41:15;102289.94;;;2.36;100.00
19236;BME280;9752;54.270;12.470;2023-02-03T20:46:18;102308.97;;;2.38;100.00
19236;BME280;9752;54.270;12.470;2023-02-03T20:51:19;102302.91;;;2.37;100.00
19236;BME280;9752;54.270;12.470;2023-02-03T20:56:24;102331.44;;;2.33;100.00
19236;BME280;9752;54.270;12.470;2023-02-03T21:01:26;102338.22;;;2.32;100.00
19236;BME280;9752;54.270;12.470;2023-02-03T21:06:30;102356.88;;;2.39;100.00
19236;BME280;9752;54.270;12.470;2023-02-03T21:11:33;102364.03;;;2.34;100.00
19236;BME280;9752;54.270;12.470;2023-02-03T21:16:36;102375.53;;;2.38;100.00
19236;BME280;9752;54.270;12.470;2023-02-03T21:21:39;102408.28;;;2.40;100.00
19236;BME280;9752;54.270;12.470;2023-02-03T21:26:42;102414.28;;;2.41;100.00
19236;BME280;9752;54.270;12.470;2023-02-03T21:31:44;102425.63;;;2.43;100.00
19236;BME280;9752;54.270;12.470;2023-02-03T21:36:46;102428.94;;;2.42;100.00
19236;BME280;9752;54.270;12.470;2023-02-03T21:41:49;102438.09;;;2.40;100.00
19236;BME280;9752;54.270;12.470;2023-02-03T21:46:51;102440.66;;;2.40;100.00
19236;BME280;9752;54.270;12.470;2023-02-03T21:51:53;102453.06;;;2.37;100.00
19236;BME280;9752;54.270;12.470;2023-02-03T21:56:57;102471.56;;;2.41;100.00
19236;BME280;9752;54.270;12.470;2023-02-03T22:01:58;102477.03;;;2.37;100.00
19236;BME280;9752;54.270;12.470;2023-02-03T22:07:13;102483.78;;;2.29;100.00
19236;BME280;9752;54.270;12.470;2023-02-03T22:12:17;102479.78;;;2.31;100.00
19236;BME280;9752;54.270;12.470;2023-02-03T22:17:19;102506.50;;;2.33;100.00
19236;BME280;9752;54.270;12.470;2023-02-03T22:22:20;102515.28;;;2.28;100.00
19236;BME280;9752;54.270;12.470;2023-02-03T22:27:23;102526.59;;;2.23;100.00
19236;BME280;9752;54.270;12.470;2023-02-03T22:32:25;102542.84;;;2.24;100.00
19236;BME280;9752;54.270;12.470;2023-02-03T22:37:27;102553.47;;;2.20;100.00
19236;BME280;9752;54.270;12.470;2023-02-03T22:42:32;102571.34;;;2.12;100.00
19236;BME280;9752;54.270;12.470;2023-02-03T22:47:34;102584.50;;;2.08;100.00
19236;BME280;9752;54.270;12.470;2023-02-03T22:52:36;102607.38;;;2.14;100.00
19236;BME280;9752;54.270;12.470;2023-02-03T22:57:39;102618.38;;;2.13;100.00
19236;BME280;9752;54.270;12.470;2023-02-03T23:02:40;102636.09;;;2.11;100.00
19236;BME280;9752;54.270;12.470;2023-02-03T23:07:42;102653.25;;;2.05;100.00
19236;BME280;9752;54.270;12.470;2023-02-03T23:12:45;102662.75;;;2.06;100.00
19236;BME280;9752;54.270;12.470;2023-02-03T23:17:47;102669.31;;;2.04;100.00
19236;BME280;9752;54.270;12.470;2023-02-03T23:22:49;102677.19;;;2.06;100.00
19236;BME280;9752;54.270;12.470;2023-02-03T23:27:52;102696.38;;;2.02;100.00
19236;BME280;9752;54.270;12.470;2023-02-03T23:32:53;102704.94;;;1.95;100.00
19236;BME280;9752;54.270;12.470;2023-02-03T23:37:55;102732.84;;;1.87;100.00
19236;BME280;9752;54.270;12.470;2023-02-03T23:42:58;102734.50;;;1.86;100.00
19236;BME280;9752;54.270;12.470;2023-02-03T23:48:00;102748.19;;;1.87;100.00
19236;BME280;9752;54.270;12.470;2023-02-03T23:53:01;102754.91;;;1.79;100.00
19236;BME280;9752;54.270;12.470;2023-02-03T23:58:04;102782.56;;;1.69;100.00
